createdAt,value
2018-08-10T00:00:01.241Z,20.39
2018-08-10T00:02:34.888Z,20.38
2018-08-10T00:05:08.892Z,20.39
2018-08-10T00:07:42.362Z,20.33
2018-08-10T00:10:15.758Z,20.26
2018-08-10T00:12:49.203Z,20.18
2018-08-10T00:15:22.552Z,20.14
2018-08-10T00:17:55.957Z,20.04
2018-08-10T00:20:29.860Z,20.05
2018-08-10T00:23:03.196Z,20.02
2018-08-10T00:25:36.601Z,19.99
2018-08-10T00:28:10.034Z,19.94
2018-08-10T00:30:43.420Z,19.89
2018-08-10T00:33:23.373Z,19.89
2018-08-10T00:35:56.791Z,19.88
2018-08-10T00:38:30.121Z,19.84
2018-08-10T00:41:03.468Z,19.83
2018-08-10T00:43:37.002Z,19.85
2018-08-10T00:46:10.434Z,19.90
2018-08-10T00:48:43.803Z,19.91
2018-08-10T00:51:17.763Z,19.95
2018-08-10T00:53:51.196Z,19.92
2018-08-10T00:56:24.545Z,19.86
2018-08-10T00:58:58.552Z,19.82
2018-08-10T01:01:31.935Z,19.76
2018-08-10T01:04:05.595Z,19.75
2018-08-10T01:06:38.930Z,19.70
2018-08-10T01:09:13.184Z,19.69
2018-08-10T01:11:46.533Z,19.62
2018-08-10T01:14:20.063Z,19.44
2018-08-10T01:16:53.424Z,19.33
2018-08-10T01:19:26.937Z,19.33
2018-08-10T01:22:00.220Z,19.10
2018-08-10T01:24:33.601Z,19.09
2018-08-10T01:27:11.209Z,18.93
2018-08-10T01:29:45.301Z,18.81
2018-08-10T01:32:18.851Z,18.68
2018-08-10T01:34:52.235Z,18.65
2018-08-10T01:37:25.641Z,18.59
2018-08-10T01:39:59.033Z,18.46
2018-08-10T01:42:32.426Z,18.42
2018-08-10T01:45:07.459Z,18.43
2018-08-10T01:47:40.803Z,18.43
2018-08-10T01:50:14.186Z,18.44
2018-08-10T01:52:47.532Z,18.43
2018-08-10T01:55:21.386Z,18.46
2018-08-10T01:57:54.719Z,18.49
2018-08-10T02:00:28.105Z,18.49
2018-08-10T02:03:01.441Z,18.46
2018-08-10T02:05:35.018Z,18.52
2018-08-10T02:08:08.413Z,18.55
2018-08-10T02:10:41.810Z,18.49
2018-08-10T02:13:15.185Z,18.63
2018-08-10T02:15:48.669Z,18.49
2018-08-10T02:18:22.026Z,18.54
2018-08-10T02:20:55.437Z,18.60
2018-08-10T02:23:28.981Z,18.55
2018-08-10T02:26:02.317Z,18.60
2018-08-10T02:28:35.714Z,18.54
2018-08-10T02:31:09.229Z,18.46
2018-08-10T02:33:42.537Z,18.53
2018-08-10T02:36:16.082Z,18.45
2018-08-10T02:38:49.555Z,18.55
2018-08-10T02:41:22.932Z,18.54
2018-08-10T02:43:56.647Z,18.43
2018-08-10T02:46:30.057Z,18.47
2018-08-10T02:49:03.410Z,18.48
2018-08-10T02:51:37.688Z,18.48
2018-08-10T02:54:11.060Z,18.43
2018-08-10T02:56:44.732Z,18.42
2018-08-10T02:59:18.254Z,18.39
2018-08-10T03:01:51.657Z,18.40
2018-08-10T03:04:25.017Z,18.41
2018-08-10T03:06:58.610Z,18.45
2018-08-10T03:09:31.988Z,18.40
2018-08-10T03:12:05.436Z,18.39
2018-08-10T03:14:38.873Z,18.46
2018-08-10T03:17:12.524Z,18.49
2018-08-10T03:19:45.927Z,18.44
2018-08-10T03:22:19.475Z,18.47
2018-08-10T03:24:52.878Z,18.44
2018-08-10T03:27:26.246Z,18.50
2018-08-10T03:29:59.681Z,18.54
2018-08-10T03:32:33.013Z,18.47
2018-08-10T03:35:06.973Z,18.46
2018-08-10T03:37:40.392Z,18.39
2018-08-10T03:40:15.489Z,18.41
2018-08-10T03:42:48.901Z,18.36
2018-08-10T03:45:22.309Z,18.38
2018-08-10T03:47:55.747Z,18.39
2018-08-10T03:50:29.849Z,18.31
2018-08-10T03:53:05.386Z,18.33
2018-08-10T03:55:38.831Z,18.33
2018-08-10T03:58:12.282Z,18.34
2018-08-10T04:00:45.650Z,18.39
2018-08-10T04:03:19.013Z,18.36
2018-08-10T04:05:52.387Z,18.29
2018-08-10T04:08:25.748Z,18.26
2018-08-10T04:10:59.121Z,18.27
2018-08-10T04:13:32.555Z,18.24
2018-08-10T04:16:05.995Z,18.23
2018-08-10T04:18:39.433Z,18.17
2018-08-10T04:21:12.806Z,18.08
2018-08-10T04:23:46.227Z,18.16
2018-08-10T04:26:19.597Z,18.13
2018-08-10T04:28:52.954Z,18.05
2018-08-10T04:31:26.381Z,18.16
2018-08-10T04:33:59.745Z,18.11
2018-08-10T04:36:33.302Z,18.16
2018-08-10T04:39:09.955Z,18.17
2018-08-10T04:41:43.672Z,18.16
2018-08-10T04:44:17.043Z,18.11
2018-08-10T04:46:50.443Z,18.16
2018-08-10T04:49:23.794Z,18.18
2018-08-10T04:51:57.157Z,18.24
2018-08-10T04:54:30.472Z,18.32
2018-08-10T04:57:05.556Z,18.28
2018-08-10T04:59:38.937Z,18.39
2018-08-10T05:02:12.317Z,18.36
2018-08-10T05:04:45.661Z,18.37
2018-08-10T05:07:19.013Z,18.24
2018-08-10T05:09:52.453Z,18.24
2018-08-10T05:12:25.778Z,18.06
2018-08-10T05:14:59.321Z,18.00
2018-08-10T05:17:32.736Z,17.87
2018-08-10T05:20:06.898Z,17.82
2018-08-10T05:22:40.910Z,17.89
2018-08-10T05:25:14.273Z,17.92
2018-08-10T05:27:47.646Z,17.85
2018-08-10T05:30:21.005Z,17.87
2018-08-10T05:32:54.398Z,17.78
2018-08-10T05:35:28.813Z,17.79
2018-08-10T05:38:02.213Z,17.71
2018-08-10T05:40:35.781Z,17.65
2018-08-10T05:43:09.229Z,17.75
2018-08-10T05:45:42.569Z,17.76
2018-08-10T05:48:15.965Z,17.69
2018-08-10T05:50:49.300Z,17.71
2018-08-10T05:53:22.653Z,17.74
2018-08-10T05:55:56.048Z,17.82
2018-08-10T05:58:29.425Z,17.89
2018-08-10T06:01:02.859Z,17.88
2018-08-10T06:03:36.445Z,17.95
2018-08-10T06:06:09.742Z,17.94
2018-08-10T06:08:43.118Z,17.97
2018-08-10T06:11:16.535Z,17.92
2018-08-10T06:13:49.992Z,17.95
2018-08-10T06:16:23.317Z,17.90
2018-08-10T06:18:56.680Z,17.92
2018-08-10T06:21:30.044Z,18.04
2018-08-10T06:24:03.762Z,18.13
2018-08-10T06:26:37.391Z,18.11
2018-08-10T06:29:10.799Z,18.03
2018-08-10T06:31:44.131Z,17.95
2018-08-10T06:34:17.622Z,18.00
2018-08-10T06:36:50.954Z,17.94
2018-08-10T06:39:24.359Z,17.95
2018-08-10T06:41:57.714Z,17.91
2018-08-10T06:44:31.065Z,17.89
2018-08-10T06:47:04.456Z,17.76
2018-08-10T06:49:37.864Z,17.84
2018-08-10T06:52:11.201Z,17.94
2018-08-10T06:54:44.576Z,17.93
2018-08-10T06:57:18.014Z,18.01
2018-08-10T06:59:51.357Z,18.06
2018-08-10T07:02:24.787Z,18.11
2018-08-10T07:04:58.199Z,18.22
2018-08-10T07:07:31.583Z,18.18
2018-08-10T07:10:06.193Z,18.09
2018-08-10T07:12:39.512Z,18.21
2018-08-10T07:15:13.288Z,18.25
2018-08-10T07:17:46.655Z,18.42
2018-08-10T07:20:20.000Z,18.51
2018-08-10T07:22:53.411Z,18.50
2018-08-10T07:25:26.818Z,18.55
2018-08-10T07:28:00.185Z,18.79
2018-08-10T07:30:33.515Z,18.83
2018-08-10T07:33:07.322Z,18.98
2018-08-10T07:35:40.645Z,18.98
2018-08-10T07:38:13.996Z,18.82
2018-08-10T07:40:47.344Z,18.83
2018-08-10T07:43:20.739Z,18.95
2018-08-10T07:45:54.226Z,18.92
2018-08-10T07:48:27.650Z,18.98
2018-08-10T07:51:00.993Z,19.06
2018-08-10T07:53:34.348Z,19.10
2018-08-10T07:56:07.805Z,19.07
2018-08-10T07:58:41.226Z,18.97
2018-08-10T08:01:14.958Z,18.93
2018-08-10T08:03:48.413Z,18.92
2018-08-10T08:06:21.951Z,19.05
2018-08-10T08:08:55.429Z,19.21
2018-08-10T08:11:28.790Z,19.60
2018-08-10T08:14:02.096Z,19.83
2018-08-10T08:16:35.786Z,20.01
2018-08-10T08:19:09.427Z,20.23
2018-08-10T08:22:21.238Z,20.39
2018-08-10T08:24:54.645Z,20.45
2018-08-10T08:27:28.042Z,20.29
2018-08-10T08:30:01.382Z,20.16
2018-08-10T08:32:34.697Z,20.83
2018-08-10T08:35:08.141Z,21.07
2018-08-10T08:37:41.394Z,20.92
2018-08-10T08:40:18.904Z,21.14
2018-08-10T08:42:52.368Z,22.01
2018-08-10T08:46:14.913Z,22.28
2018-08-10T08:48:52.592Z,21.41
2018-08-10T08:51:26.773Z,21.14
2018-08-10T08:55:09.358Z,21.20
2018-08-10T08:57:42.933Z,21.11
2018-08-10T09:00:16.330Z,21.35
2018-08-10T09:02:49.637Z,21.27
2018-08-10T09:05:23.553Z,21.90
2018-08-10T09:07:57.246Z,22.39
2018-08-10T09:10:30.631Z,22.31
2018-08-10T09:13:03.949Z,22.65
2018-08-10T09:15:37.257Z,22.73
2018-08-10T09:18:10.613Z,22.77
2018-08-10T09:20:44.272Z,22.51
2018-08-10T09:23:17.657Z,22.27
2018-08-10T09:25:51.047Z,22.39
2018-08-10T09:28:24.825Z,22.59
2018-08-10T09:30:58.257Z,22.98
2018-08-10T09:33:31.592Z,23.28
2018-08-10T09:36:05.061Z,23.22
2018-08-10T09:38:38.718Z,22.91
2018-08-10T09:41:12.657Z,22.68
2018-08-10T09:43:46.052Z,22.49
2018-08-10T09:46:19.563Z,22.50
2018-08-10T09:48:52.910Z,22.47
2018-08-10T09:51:26.366Z,22.66
2018-08-10T09:54:00.209Z,22.84
2018-08-10T09:56:33.936Z,22.82
2018-08-10T09:59:07.547Z,22.80
2018-08-10T10:01:48.341Z,22.86
2018-08-10T10:04:21.735Z,22.87
2018-08-10T10:06:55.100Z,22.98
2018-08-10T10:09:28.481Z,23.14
2018-08-10T10:12:01.858Z,23.22
2018-08-10T10:14:35.233Z,23.28
2018-08-10T10:17:08.590Z,23.33
2018-08-10T10:19:41.908Z,23.32
2018-08-10T10:22:15.271Z,23.13
2018-08-10T10:24:48.693Z,22.96
2018-08-10T10:27:22.122Z,23.05
2018-08-10T10:29:55.521Z,23.16
2018-08-10T10:32:28.888Z,23.04
2018-08-10T10:35:02.633Z,23.21
2018-08-10T10:37:36.229Z,23.20
2018-08-10T10:40:10.398Z,22.80
2018-08-10T10:42:43.753Z,22.59
2018-08-10T10:45:17.362Z,22.56
2018-08-10T10:47:50.781Z,22.46
2018-08-10T10:50:53.367Z,22.36
2018-08-10T10:53:26.778Z,22.14
2018-08-10T10:56:00.211Z,22.41
2018-08-10T10:58:33.636Z,22.29
2018-08-10T11:01:07.059Z,22.28
2018-08-10T11:03:40.482Z,22.22
2018-08-10T11:06:13.909Z,22.58
2018-08-10T11:08:47.345Z,22.67
2018-08-10T11:11:20.731Z,22.99
2018-08-10T11:13:54.141Z,23.06
2018-08-10T11:16:27.535Z,22.92
2018-08-10T11:19:00.956Z,22.77
2018-08-10T11:21:34.445Z,22.66
2018-08-10T11:24:08.267Z,22.64
2018-08-10T11:26:41.767Z,22.95
2018-08-10T11:29:15.207Z,23.42
2018-08-10T11:31:48.622Z,23.50
2018-08-10T11:34:22.436Z,23.53
2018-08-10T11:36:56.545Z,23.89
2018-08-10T11:39:30.902Z,24.38
2018-08-10T11:42:04.388Z,24.80
2018-08-10T11:44:37.828Z,25.21
2018-08-10T11:47:11.241Z,25.60
2018-08-10T11:49:44.671Z,25.89
2018-08-10T11:52:18.079Z,25.61
2018-08-10T11:54:51.712Z,25.35
2018-08-10T11:57:25.155Z,25.06
2018-08-10T11:59:58.656Z,24.94
2018-08-10T12:02:32.071Z,24.47
2018-08-10T12:05:07.148Z,24.04
2018-08-10T12:07:40.807Z,24.04
2018-08-10T12:10:14.300Z,24.12
2018-08-10T12:12:49.162Z,23.97
2018-08-10T12:15:24.500Z,24.16
2018-08-10T12:18:00.044Z,24.35
2018-08-10T12:20:34.997Z,24.65
2018-08-10T12:23:09.842Z,24.66
2018-08-10T12:25:44.725Z,24.71
2018-08-10T12:28:19.583Z,24.58
2018-08-10T12:30:54.646Z,24.25
2018-08-10T12:33:28.632Z,24.03
2018-08-10T12:36:02.714Z,23.81
2018-08-10T12:38:37.021Z,23.63
2018-08-10T12:41:11.298Z,23.52
2018-08-10T12:43:45.825Z,23.47
2018-08-10T12:46:19.940Z,23.65
2018-08-10T12:48:54.453Z,23.86
2018-08-10T12:51:28.695Z,23.95
2018-08-10T12:54:02.962Z,24.07
2018-08-10T12:56:36.955Z,24.21
2018-08-10T12:59:11.303Z,24.32
2018-08-10T13:01:45.409Z,24.42
2018-08-10T13:04:19.308Z,24.50
2018-08-10T13:06:53.126Z,24.45
2018-08-10T13:09:26.965Z,24.43
2018-08-10T13:12:00.844Z,24.54
2018-08-10T13:14:34.601Z,24.54
2018-08-10T13:17:08.358Z,24.48
2018-08-10T13:19:42.465Z,24.38
2018-08-10T13:22:16.366Z,24.32
2018-08-10T13:24:50.961Z,24.38
2018-08-10T13:27:25.068Z,24.42
2018-08-10T13:29:59.237Z,24.39
2018-08-10T13:32:33.548Z,24.27
2018-08-10T13:35:08.450Z,23.98
2018-08-10T13:37:42.448Z,24.31
2018-08-10T13:40:16.436Z,24.25
2018-08-10T13:42:50.501Z,24.26
2018-08-10T13:45:24.529Z,23.97
2018-08-10T13:47:59.027Z,24.09
2018-08-10T13:50:33.189Z,24.22
2018-08-10T13:53:07.411Z,24.26
2018-08-10T13:55:41.264Z,24.08
2018-08-10T13:58:15.130Z,24.12
2018-08-10T14:00:49.430Z,24.04
2018-08-10T14:03:23.559Z,23.97
2018-08-10T14:05:57.895Z,24.01
2018-08-10T14:08:32.048Z,24.02
2018-08-10T14:11:06.273Z,24.24
2018-08-10T14:13:40.569Z,24.34
2018-08-10T14:16:14.457Z,24.39
2018-08-10T14:18:48.168Z,24.48
2018-08-10T14:21:22.844Z,24.58
2018-08-10T14:23:56.944Z,24.64
2018-08-10T14:26:31.419Z,24.66
2018-08-10T14:29:05.692Z,24.38
2018-08-10T14:31:40.029Z,24.37
2018-08-10T14:34:13.864Z,24.25
2018-08-10T14:36:47.937Z,24.22
2018-08-10T14:39:22.002Z,24.26
2018-08-10T14:41:56.187Z,24.18
2018-08-10T14:44:30.140Z,24.27
2018-08-10T14:47:04.320Z,24.40
2018-08-10T14:49:38.658Z,24.39
2018-08-10T14:52:12.815Z,24.36
2018-08-10T14:54:46.732Z,24.32
2018-08-10T14:57:21.081Z,24.28
2018-08-10T14:59:55.191Z,24.20
2018-08-10T15:02:29.471Z,24.00
2018-08-10T15:05:04.014Z,23.88
2018-08-10T15:07:38.259Z,23.80
2018-08-10T15:10:14.589Z,23.75
2018-08-10T15:12:49.137Z,23.55
2018-08-10T15:15:23.009Z,23.42
2018-08-10T15:17:57.853Z,23.44
2018-08-10T15:20:32.005Z,23.47
2018-08-10T15:23:06.547Z,23.50
2018-08-10T15:25:40.933Z,23.53
2018-08-10T15:28:15.483Z,23.56
2018-08-10T15:30:49.770Z,23.55
2018-08-10T15:33:24.277Z,23.44
2018-08-10T15:35:58.404Z,23.39
2018-08-10T15:38:32.462Z,23.38
2018-08-10T15:41:06.361Z,23.23
2018-08-10T15:43:40.884Z,23.09
2018-08-10T15:46:15.153Z,23.04
2018-08-10T15:48:48.639Z,23.07
2018-08-10T15:51:22.061Z,22.94
2018-08-10T15:53:55.468Z,22.91
2018-08-10T15:56:29.180Z,22.76
2018-08-10T15:59:02.742Z,22.84
2018-08-10T16:01:37.175Z,23.00
2018-08-10T16:04:10.587Z,23.08
2018-08-10T16:06:44.056Z,23.14
2018-08-10T16:09:17.529Z,23.15
2018-08-10T16:11:51.252Z,23.17
2018-08-10T16:14:24.795Z,23.18
2018-08-10T16:16:58.670Z,23.09
2018-08-10T16:19:32.081Z,23.16
2018-08-10T16:22:05.846Z,23.12
2018-08-10T16:24:39.227Z,23.19
2018-08-10T16:27:12.942Z,23.24
2018-08-10T16:29:46.520Z,23.17
2018-08-10T16:32:20.016Z,23.17
2018-08-10T16:34:54.461Z,23.10
2018-08-10T16:37:27.983Z,23.07
2018-08-10T16:40:01.425Z,23.04
2018-08-10T16:42:35.220Z,22.82
2018-08-10T16:45:09.268Z,22.87
2018-08-10T16:47:42.849Z,22.90
2018-08-10T16:50:17.634Z,22.95
2018-08-10T16:52:51.175Z,23.06
2018-08-10T16:55:24.635Z,23.14
2018-08-10T16:57:58.081Z,23.22
2018-08-10T17:00:32.187Z,23.31
2018-08-10T17:03:06.458Z,23.37
2018-08-10T17:05:41.297Z,23.44
2018-08-10T17:08:15.074Z,23.51
2018-08-10T17:10:49.504Z,23.56
2018-08-10T17:13:22.962Z,23.58
2018-08-10T17:15:56.812Z,23.52
2018-08-10T17:18:30.386Z,23.48
2018-08-10T17:21:03.843Z,23.28
2018-08-10T17:23:38.078Z,23.15
2018-08-10T17:26:11.548Z,23.03
2018-08-10T17:28:45.917Z,22.99
2018-08-10T17:31:19.647Z,22.97
2018-08-10T17:33:53.481Z,22.94
2018-08-10T17:36:27.124Z,22.94
2018-08-10T17:39:01.986Z,22.92
2018-08-10T17:41:36.398Z,22.86
2018-08-10T17:44:11.782Z,22.85
2018-08-10T17:46:46.192Z,22.80
2018-08-10T17:49:20.728Z,22.72
2018-08-10T17:51:54.260Z,22.67
2018-08-10T17:54:27.776Z,22.61
2018-08-10T17:57:02.274Z,22.57
2018-08-10T17:59:35.762Z,22.46
2018-08-10T18:02:09.453Z,22.38
2018-08-10T18:04:44.335Z,22.30
2018-08-10T18:07:21.486Z,22.23
2018-08-10T18:10:01.921Z,22.14
2018-08-10T18:12:37.503Z,22.06
2018-08-10T18:15:13.989Z,21.96
2018-08-10T18:17:49.096Z,21.84
2018-08-10T18:20:23.275Z,21.74
2018-08-10T18:22:56.738Z,21.65
2018-08-10T18:25:30.159Z,21.54
2018-08-10T18:28:03.623Z,21.41
2018-08-10T18:30:37.042Z,21.33
2018-08-10T18:33:10.505Z,21.25
2018-08-10T18:35:45.640Z,21.19
2018-08-10T18:38:19.129Z,21.10
2018-08-10T18:40:52.652Z,20.97
2018-08-10T18:43:26.131Z,20.88
2018-08-10T18:46:00.271Z,20.71
2018-08-10T18:48:33.822Z,20.57
2018-08-10T18:51:07.714Z,20.41
2018-08-10T18:53:41.255Z,20.34
2018-08-10T18:56:14.783Z,20.25
2018-08-10T18:58:48.909Z,20.14
2018-08-10T19:01:23.969Z,20.05
2018-08-10T19:03:58.137Z,19.92
2018-08-10T19:06:31.630Z,19.75
2018-08-10T19:09:07.936Z,19.65
2018-08-10T19:11:41.389Z,19.55
2018-08-10T19:14:15.049Z,19.47
2018-08-10T19:16:48.564Z,19.37
2018-08-10T19:19:23.200Z,19.28
2018-08-10T19:21:56.642Z,19.17
2018-08-10T19:24:30.262Z,19.07
2018-08-10T19:27:04.527Z,18.99
2018-08-10T19:29:37.996Z,18.93
2018-08-10T19:32:11.497Z,18.83
2018-08-10T19:34:45.041Z,18.72
2018-08-10T19:37:18.648Z,18.58
2018-08-10T19:39:52.357Z,18.33
2018-08-10T19:42:26.109Z,18.22
2018-08-10T19:45:00.224Z,18.15
2018-08-10T19:47:33.991Z,18.12
2018-08-10T19:50:09.310Z,18.06
2018-08-10T19:52:42.934Z,17.99
2018-08-10T19:55:16.608Z,17.92
2018-08-10T19:57:50.158Z,17.81
2018-08-10T20:00:23.731Z,17.74
2018-08-10T20:02:57.180Z,17.72
2018-08-10T20:05:31.582Z,17.56
2018-08-10T20:08:05.016Z,17.41
2018-08-10T20:10:39.056Z,17.30
2018-08-10T20:13:12.455Z,17.35
2018-08-10T20:15:46.092Z,17.36
2018-08-10T20:18:19.912Z,17.31
2018-08-10T20:20:53.438Z,17.29
2018-08-10T20:23:26.887Z,17.27
2018-08-10T20:26:00.399Z,17.17
2018-08-10T20:28:33.885Z,17.06
2018-08-10T20:31:07.313Z,16.99
2018-08-10T20:33:40.847Z,16.83
2018-08-10T20:36:14.292Z,16.86
2018-08-10T20:38:47.880Z,16.86
2018-08-10T20:41:21.299Z,16.79
2018-08-10T20:43:54.792Z,16.79
2018-08-10T20:46:28.444Z,16.77
2018-08-10T20:49:01.877Z,16.67
2018-08-10T20:51:35.335Z,16.57
2018-08-10T20:54:08.906Z,16.48
2018-08-10T20:56:42.335Z,16.44
2018-08-10T20:59:15.785Z,16.33
2018-08-10T21:01:49.330Z,16.32
2018-08-10T21:04:22.780Z,16.30
2018-08-10T21:06:56.215Z,16.21
2018-08-10T21:09:29.900Z,16.23
2018-08-10T21:12:03.356Z,16.06
2018-08-10T21:14:36.793Z,16.01
2018-08-10T21:17:10.283Z,15.90
2018-08-10T21:19:43.750Z,15.83
2018-08-10T21:22:17.214Z,15.79
2018-08-10T21:24:50.668Z,15.75
2018-08-10T21:27:24.122Z,15.73
2018-08-10T21:29:57.602Z,15.72
2018-08-10T21:32:31.007Z,15.66
2018-08-10T21:35:04.658Z,15.62
2018-08-10T21:37:38.212Z,15.53
2018-08-10T21:40:11.861Z,15.51
2018-08-10T21:42:45.276Z,15.48
2018-08-10T21:45:18.714Z,15.43
2018-08-10T21:47:52.123Z,15.37
2018-08-10T21:50:25.547Z,15.34
2018-08-10T21:52:58.994Z,15.29
2018-08-10T21:55:32.453Z,15.25
2018-08-10T21:58:05.867Z,15.19
2018-08-10T22:00:52.795Z,15.11
2018-08-10T22:03:26.412Z,15.06
2018-08-10T22:05:59.997Z,15.03
2018-08-10T22:08:33.472Z,15.01
2018-08-10T22:11:07.133Z,14.96
2018-08-10T22:13:45.854Z,14.90
2018-08-10T22:16:24.652Z,14.86
2018-08-10T22:19:07.813Z,14.83
2018-08-10T22:21:42.281Z,14.79
2018-08-10T22:24:16.396Z,14.73
2018-08-10T22:26:49.826Z,14.67
2018-08-10T22:29:23.411Z,14.63
2018-08-10T22:31:57.030Z,14.59
2018-08-10T22:34:30.499Z,14.55
2018-08-10T22:37:03.995Z,14.51
2018-08-10T22:39:37.419Z,14.46
2018-08-10T22:42:11.082Z,14.39
2018-08-10T22:44:44.594Z,14.33
2018-08-10T22:47:18.161Z,14.31
2018-08-10T22:49:51.871Z,14.25
2018-08-10T22:52:25.508Z,14.24
2018-08-10T22:54:59.215Z,14.20
2018-08-10T22:57:32.882Z,14.16
2018-08-10T23:00:06.643Z,14.12
2018-08-10T23:02:40.355Z,14.02
2018-08-10T23:05:13.845Z,13.98
2018-08-10T23:07:47.509Z,13.97
2018-08-10T23:10:21.023Z,13.93
2018-08-10T23:12:54.608Z,13.85
2018-08-10T23:15:28.250Z,13.79
2018-08-10T23:18:01.947Z,13.75
2018-08-10T23:20:35.544Z,13.72
2018-08-10T23:23:09.215Z,13.66
2018-08-10T23:25:42.817Z,13.63
2018-08-10T23:28:16.462Z,13.60
2018-08-10T23:30:50.056Z,13.58
2018-08-10T23:33:23.713Z,13.53
2018-08-10T23:35:57.283Z,13.48
2018-08-10T23:38:31.046Z,13.50
2018-08-10T23:41:04.738Z,13.48
2018-08-10T23:43:38.450Z,13.47
2018-08-10T23:46:11.889Z,13.48
2018-08-10T23:48:45.300Z,13.50
2018-08-10T23:51:18.736Z,13.48
2018-08-10T23:53:52.102Z,13.42
2018-08-10T23:56:25.507Z,13.43
2018-08-10T23:58:59.131Z,13.33
